Time,TemperatureF,DewpointF,PressureIn,WindDirection,WindDirectionDegrees,WindSpeedMPH,WindSpeedGustMPH,Humidity,HourlyPrecipIn,Conditions,Clouds,dailyrainin,SoftwareType,DateUTC
2013-08-20 00:00:00,76.3,75.4,30.06,NW,314,0.0,0.0,97,0.00,,---,0.00,VWS V14.01,2013-08-20 04:00:00,
2013-08-20 00:01:00,76.3,75.4,30.07,NW,314,0.0,0.0,97,0.00,,---,0.00,VWS V14.01,2013-08-20 04:01:00,
2013-08-20 00:06:00,76.1,75.2,30.07,NW,314,0.0,0.0,97,0.00,,---,0.00,VWS V14.01,2013-08-20 04:06:00,
2013-08-20 00:11:00,76.0,75.1,30.07,NW,314,0.0,0.0,97,0.00,,---,0.00,VWS V14.01,2013-08-20 04:11:00,
2013-08-20 00:16:00,75.9,75.0,30.07,NW,314,0.0,0.0,97,0.00,,---,0.00,VWS V14.01,2013-08-20 04:16:00,
2013-08-20 00:21:00,75.8,74.9,30.07,NW,314,0.0,0.0,97,0.00,,---,0.00,VWS V14.01,2013-08-20 04:21:00,
2013-08-20 00:26:00,75.7,74.8,30.07,NW,314,0.0,0.0,97,0.00,,---,0.00,VWS V14.01,2013-08-20 04:26:00,
2013-08-20 00:30:00,75.8,74.9,30.07,NW,314,0.0,0.0,97,0.00,,---,0.00,VWS V14.01,2013-08-20 04:30:00,
2013-08-20 00:31:00,75.8,74.9,30.07,NW,314,0.0,0.0,97,0.00,,---,0.00,VWS V14.01,2013-08-20 04:31:00,
2013-08-20 00:36:00,75.8,74.9,30.07,NW,314,0.0,0.0,97,0.00,,---,0.00,VWS V14.01,2013-08-20 04:36:00,
2013-08-20 00:41:00,75.9,75.0,30.07,NW,314,0.0,0.0,97,0.00,,---,0.00,VWS V14.01,2013-08-20 04:41:00,
2013-08-20 00:46:00,76.0,75.1,30.07,NW,314,0.0,0.0,97,0.00,,---,0.00,VWS V14.01,2013-08-20 04:46:00,
2013-08-20 00:51:00,75.9,75.0,30.07,NW,314,0.0,0.0,97,0.00,,---,0.00,VWS V14.01,2013-08-20 04:51:00,
2013-08-20 00:56:00,75.8,74.9,30.07,NW,314,0.0,0.0,97,0.00,,---,0.00,VWS V14.01,2013-08-20 04:56:00,
2013-08-20 01:00:00,75.8,74.9,30.07,NW,314,0.0,0.0,97,0.00,,---,0.00,VWS V14.01,2013-08-20 05:00:00,
2013-08-20 01:01:00,75.8,74.9,30.07,NW,314,0.0,0.0,97,0.00,,---,0.00,VWS V14.01,2013-08-20 05:01:00,
2013-08-20 01:06:00,75.7,74.8,30.07,NW,314,0.0,0.0,97,0.00,,---,0.00,VWS V14.01,2013-08-20 05:06:00,
2013-08-20 01:11:00,75.8,74.9,30.06,NW,314,0.0,0.0,97,0.00,,---,0.00,VWS V14.01,2013-08-20 05:11:00,
2013-08-20 01:16:00,76.0,75.1,30.06,NW,314,0.0,0.0,97,0.00,,---,0.00,VWS V14.01,2013-08-20 05:16:00,
2013-08-20 01:21:00,75.9,75.0,30.06,NW,314,0.0,0.0,97,0.00,,---,0.00,VWS V14.01,2013-08-20 05:21:00,
2013-08-20 01:26:00,76.0,75.1,30.06,NW,314,0.0,0.0,97,0.00,,---,0.00,VWS V14.01,2013-08-20 05:26:00,
2013-08-20 01:30:00,75.9,75.0,30.06,NW,314,0.0,0.0,97,0.00,,---,0.00,VWS V14.01,2013-08-20 05:30:00,
2013-08-20 01:31:00,75.9,75.0,30.06,NW,314,0.0,0.0,97,0.00,,---,0.00,VWS V14.01,2013-08-20 05:31:00,
2013-08-20 01:36:00,75.8,74.9,30.06,NW,314,0.0,0.0,97,0.00,,---,0.00,VWS V14.01,2013-08-20 05:36:00,
2013-08-20 01:41:00,75.7,74.8,30.06,NW,314,0.0,0.0,97,0.00,,---,0.00,VWS V14.01,2013-08-20 05:41:00,
2013-08-20 01:46:00,75.7,74.8,30.06,NW,314,0.0,0.0,97,0.00,,---,0.00,VWS V14.01,2013-08-20 05:46:00,
2013-08-20 01:51:00,75.5,74.6,30.05,NW,314,0.0,0.0,97,0.00,,---,0.00,VWS V14.01,2013-08-20 05:51:00,
2013-08-20 01:56:00,75.3,74.4,30.06,NW,314,0.0,0.0,97,0.00,,---,0.00,VWS V14.01,2013-08-20 05:56:00,
2013-08-20 02:00:00,75.2,74.3,30.06,NW,314,0.0,0.0,97,0.00,,---,0.00,VWS V14.01,2013-08-20 06:00:00,
2013-08-20 02:01:00,75.2,74.3,30.06,NW,314,0.0,0.0,97,0.00,,---,0.00,VWS V14.01,2013-08-20 06:01:00,
2013-08-20 02:06:00,75.0,74.1,30.06,NW,314,0.0,0.0,97,0.00,,---,0.00,VWS V14.01,2013-08-20 06:06:00,
2013-08-20 02:11:00,75.1,74.2,30.05,NW,314,0.0,0.0,97,0.00,,---,0.00,VWS V14.01,2013-08-20 06:11:00,
2013-08-20 02:16:00,75.0,74.1,30.06,NW,314,0.0,0.0,97,0.00,,---,0.00,VWS V14.01,2013-08-20 06:16:00,
2013-08-20 02:21:00,75.0,74.1,30.06,NW,314,0.0,0.0,97,0.00,,---,0.00,VWS V14.01,2013-08-20 06:21:00,
2013-08-20 02:26:00,74.9,74.0,30.06,NW,314,0.0,0.0,97,0.00,,---,0.00,VWS V14.01,2013-08-20 06:26:00,
2013-08-20 02:30:00,74.9,74.0,30.06,NW,314,0.0,0.0,97,0.00,,---,0.00,VWS V14.01,2013-08-20 06:30:00,
2013-08-20 03:00:00,74.4,73.8,30.05,NW,314,0.0,0.0,98,0.00,,---,0.00,VWS V14.01,2013-08-20 07:00:00,
2013-08-20 03:30:00,74.1,73.5,30.05,NW,314,0.0,0.0,98,0.00,,---,0.00,VWS V14.01,2013-08-20 07:30:00,
2013-08-20 04:00:00,73.8,73.2,30.05,NW,314,0.0,0.0,98,0.00,,---,0.00,VWS V14.01,2013-08-20 08:00:00,
2013-08-20 04:30:00,73.8,73.2,30.04,NW,314,0.0,0.0,98,0.00,,---,0.00,VWS V14.01,2013-08-20 08:30:00,
2013-08-20 05:00:00,73.6,73.0,30.04,WSW,245,0.0,0.0,98,0.01,,---,0.01,VWS V14.01,2013-08-20 09:00:00,
2013-08-20 05:30:00,73.4,72.8,30.05,WSW,244,0.0,0.0,98,0.01,,---,0.01,VWS V14.01,2013-08-20 09:30:00,
2013-08-20 06:00:00,73.4,72.8,30.05,WSW,245,0.0,0.0,98,0.01,,---,0.01,VWS V14.01,2013-08-20 10:00:00,
2013-08-20 06:30:00,73.4,72.8,30.07,West,259,0.0,0.0,98,0.00,,---,0.01,VWS V14.01,2013-08-20 10:30:00,
2013-08-20 07:00:00,73.3,72.7,30.07,WSW,258,0.0,0.0,98,0.00,,---,0.01,VWS V14.01,2013-08-20 11:00:00,
2013-08-20 07:30:00,74.0,73.4,30.08,West,279,0.0,1.0,98,0.00,,---,0.01,VWS V14.01,2013-08-20 11:30:00,
2013-08-20 08:00:00,75.2,74.6,30.09,West,272,0.0,1.0,98,0.00,,---,0.01,VWS V14.01,2013-08-20 12:00:00,
2013-08-20 08:30:00,76.4,75.8,30.09,WSW,257,0.0,0.0,98,0.00,,---,0.01,VWS V14.01,2013-08-20 12:30:00,
2013-08-20 09:00:00,79.0,78.4,30.10,NW,304,0.0,0.0,98,0.00,,---,0.01,VWS V14.01,2013-08-20 13:00:00,
2013-08-20 09:30:00,81.1,80.5,30.11,South,175,0.0,3.0,98,0.00,,---,0.01,VWS V14.01,2013-08-20 13:30:00,
2013-08-20 10:00:00,81.6,80.0,30.12,ESE,119,0.0,3.0,95,0.00,,---,0.01,VWS V14.01,2013-08-20 14:00:00,
2013-08-20 10:30:00,81.1,80.5,30.11,South,175,0.0,0.0,98,0.00,,---,0.01,VWS V14.01,2013-08-20 14:30:00,
2013-08-20 10:35:00,82.4,80.2,30.12,ENE,76,1.0,1.0,93,0.00,,---,0.01,VWS V14.01,2013-08-20 14:35:00,
2013-08-20 10:40:00,82.4,79.8,30.13,East,83,0.0,1.0,92,0.00,,---,0.01,VWS V14.01,2013-08-20 14:40:00,
2013-08-20 10:45:00,82.2,79.7,30.13,ENE,74,1.0,1.0,92,0.00,,---,0.01,VWS V14.01,2013-08-20 14:45:00,
2013-08-20 10:49:00,82.4,79.8,30.12,ENE,62,0.0,2.0,92,0.00,,---,0.01,VWS V14.01,2013-08-20 14:49:00,
2013-08-20 10:54:00,82.3,79.8,30.13,ENE,57,1.0,2.0,92,0.00,,---,0.01,VWS V14.01,2013-08-20 14:54:00,
2013-08-20 11:00:00,82.5,79.6,30.13,ENE,76,1.0,2.0,91,0.00,,---,0.01,VWS V14.01,2013-08-20 15:00:00,
2013-08-20 11:05:00,82.8,79.9,30.12,ENE,73,1.0,2.0,91,0.00,,---,0.01,VWS V14.01,2013-08-20 15:05:00,
2013-08-20 11:10:00,82.9,79.7,30.13,East,83,0.0,2.0,90,0.00,,---,0.01,VWS V14.01,2013-08-20 15:10:00,
2013-08-20 11:15:00,83.0,79.4,30.13,ENE,74,1.0,2.0,89,0.00,,---,0.01,VWS V14.01,2013-08-20 15:15:00,
2013-08-20 11:20:00,83.3,80.1,30.13,ENE,71,1.0,2.0,90,0.00,,---,0.01,VWS V14.01,2013-08-20 15:20:00,
2013-08-20 11:25:00,83.5,79.9,30.13,ENE,65,1.0,2.0,89,0.00,,---,0.01,VWS V14.01,2013-08-20 15:25:00,
2013-08-20 11:30:00,83.5,79.9,30.13,ENE,67,1.0,2.0,89,0.00,,---,0.01,VWS V14.01,2013-08-20 15:30:00,
2013-08-20 11:35:00,84.1,80.5,30.14,East,89,0.0,2.0,89,0.00,,---,0.01,VWS V14.01,2013-08-20 15:35:00,
2013-08-20 11:40:00,85.1,81.5,30.13,South,183,1.0,2.0,89,0.00,,---,0.01,VWS V14.01,2013-08-20 15:40:00,
2013-08-20 11:45:00,85.6,81.6,30.14,ENE,75,2.0,2.0,88,0.00,,---,0.01,VWS V14.01,2013-08-20 15:45:00,
2013-08-20 11:50:00,85.8,81.8,30.13,East,94,2.0,2.0,88,0.00,,---,0.01,VWS V14.01,2013-08-20 15:50:00,
2013-08-20 11:55:00,85.9,80.9,30.13,ENE,61,2.0,2.0,85,0.00,,---,0.01,VWS V14.01,2013-08-20 15:55:00,
2013-08-20 12:00:00,86.4,81.4,30.13,ESE,102,0.0,2.0,85,0.00,,---,0.01,VWS V14.01,2013-08-20 16:00:00,
2013-08-20 12:05:00,87.0,81.6,30.13,NE,53,1.0,2.0,84,0.00,,---,0.01,VWS V14.01,2013-08-20 16:05:00,
2013-08-20 12:10:00,85.9,80.1,30.13,East,99,1.0,2.0,83,0.00,,---,0.01,VWS V14.01,2013-08-20 16:10:00,
2013-08-20 12:15:00,86.1,81.4,30.13,West,276,1.0,2.0,86,0.00,,---,0.01,VWS V14.01,2013-08-20 16:15:00,
2013-08-20 12:20:00,86.4,81.7,30.13,East,90,1.0,2.0,86,0.00,,---,0.01,VWS V14.01,2013-08-20 16:20:00,
2013-08-20 12:25:00,86.2,80.8,30.13,NE,37,0.0,2.0,84,0.00,,---,0.01,VWS V14.01,2013-08-20 16:25:00,
2013-08-20 12:30:00,86.0,80.6,30.13,SE,138,0.0,0.0,84,0.00,,---,0.01,VWS V14.01,2013-08-20 16:30:00,
2013-08-20 12:35:00,86.6,81.2,30.13,SE,133,0.0,2.0,84,0.00,,---,0.01,VWS V14.01,2013-08-20 16:35:00,
2013-08-20 12:40:00,87.5,82.1,30.14,SE,134,1.0,2.0,84,0.00,,---,0.01,VWS V14.01,2013-08-20 16:40:00,
2013-08-20 12:45:00,88.3,83.2,30.14,SE,130,1.0,2.0,85,0.00,,---,0.01,VWS V14.01,2013-08-20 16:45:00,
2013-08-20 12:50:00,88.3,82.1,30.13,SE,133,1.0,2.0,82,0.00,,---,0.01,VWS V14.01,2013-08-20 16:50:00,
2013-08-20 12:55:00,88.4,82.2,30.13,ESE,105,0.0,2.0,82,0.00,,---,0.01,VWS V14.01,2013-08-20 16:55:00,
2013-08-20 13:00:00,88.6,82.4,30.13,ENE,76,1.0,2.0,82,0.00,,---,0.01,VWS V14.01,2013-08-20 17:00:00,
2013-08-20 13:05:00,88.8,82.2,30.13,East,79,1.0,2.0,81,0.00,,---,0.01,VWS V14.01,2013-08-20 17:05:00,
2013-08-20 13:10:00,88.2,81.6,30.12,ESE,113,1.0,4.0,81,0.00,,---,0.01,VWS V14.01,2013-08-20 17:10:00,
2013-08-20 13:15:00,88.3,81.7,30.12,East,82,0.0,4.0,81,0.00,,---,0.01,VWS V14.01,2013-08-20 17:15:00,
2013-08-20 13:20:00,88.7,82.5,30.13,East,88,1.0,4.0,82,0.00,,---,0.01,VWS V14.01,2013-08-20 17:20:00,
2013-08-20 13:26:00,88.6,82.4,30.14,East,99,1.0,4.0,82,0.00,,---,0.01,VWS V14.01,2013-08-20 17:26:00,
2013-08-20 13:30:00,86.5,81.8,30.13,SE,126,2.0,7.0,86,0.00,,---,0.01,VWS V14.01,2013-08-20 17:30:00,
2013-08-20 13:31:00,86.5,81.8,30.13,SE,142,3.0,5.0,86,0.00,,---,0.01,VWS V14.01,2013-08-20 17:31:00,
2013-08-20 13:36:00,86.6,81.6,30.13,SE,138,6.0,7.0,85,0.00,,---,0.01,VWS V14.01,2013-08-20 17:36:00,
2013-08-20 13:41:00,86.6,81.6,30.12,East,87,3.0,7.0,85,0.00,,---,0.01,VWS V14.01,2013-08-20 17:41:00,
2013-08-20 13:46:00,86.7,81.7,30.11,ENE,68,1.0,1.0,85,0.00,,---,0.01,VWS V14.01,2013-08-20 17:46:00,
2013-08-20 13:51:00,86.8,81.8,30.12,SSE,153,8.0,9.0,85,0.00,,---,0.01,VWS V14.01,2013-08-20 17:51:00,
2013-08-20 13:56:00,86.8,81.8,30.12,SE,135,2.0,9.0,85,0.00,,---,0.01,VWS V14.01,2013-08-20 17:56:00,
2013-08-20 14:00:00,87.0,81.9,30.12,ESE,113,0.0,9.0,85,0.00,,---,0.01,VWS V14.01,2013-08-20 18:00:00,
2013-08-20 14:01:00,87.0,81.9,30.12,SE,140,4.0,4.0,85,0.00,,---,0.01,VWS V14.01,2013-08-20 18:01:00,
2013-08-20 14:06:00,87.1,82.0,30.11,ENE,74,2.0,7.0,85,0.00,,---,0.01,VWS V14.01,2013-08-20 18:06:00,
2013-08-20 14:11:00,87.2,81.8,30.11,SE,130,5.0,7.0,84,0.00,,---,0.01,VWS V14.01,2013-08-20 18:11:00,
2013-08-20 14:16:00,87.3,81.9,30.12,SSE,149,1.0,10.0,84,0.00,,---,0.01,VWS V14.01,2013-08-20 18:16:00,
2013-08-20 14:21:00,87.5,82.1,30.12,SE,146,2.0,10.0,84,0.00,,---,0.01,VWS V14.01,2013-08-20 18:21:00,
2013-08-20 14:26:00,87.5,81.3,30.11,SSE,150,5.0,10.0,82,0.00,,---,0.01,VWS V14.01,2013-08-20 18:26:00,
2013-08-20 14:30:00,87.6,81.4,30.11,East,82,4.0,10.0,82,0.00,,---,0.01,VWS V14.01,2013-08-20 18:30:00,
2013-08-20 14:31:00,87.6,81.4,30.11,East,80,3.0,4.0,82,0.00,,---,0.01,VWS V14.01,2013-08-20 18:31:00,
2013-08-20 14:36:00,87.5,81.3,30.10,ESE,119,4.0,5.0,82,0.00,,---,0.01,VWS V14.01,2013-08-20 18:36:00,
2013-08-20 14:41:00,87.4,81.2,30.10,SE,140,1.0,7.0,82,0.00,,---,0.01,VWS V14.01,2013-08-20 18:41:00,
2013-08-20 14:46:00,87.4,80.9,30.10,East,101,3.0,7.0,81,0.00,,---,0.01,VWS V14.01,2013-08-20 18:46:00,
2013-08-20 14:51:00,87.4,80.9,30.10,East,96,1.0,7.0,81,0.00,,---,0.01,VWS V14.01,2013-08-20 18:51:00,
2013-08-20 14:56:00,87.2,80.7,30.10,ESE,109,3.0,7.0,81,0.00,,---,0.01,VWS V14.01,2013-08-20 18:56:00,
2013-08-20 15:00:00,86.8,80.3,30.10,ESE,112,1.0,10.0,81,0.00,,---,0.01,VWS V14.01,2013-08-20 19:00:00,
2013-08-20 15:01:00,86.8,80.3,30.10,ESE,112,0.0,1.0,81,0.00,,---,0.01,VWS V14.01,2013-08-20 19:01:00,
2013-08-20 15:06:00,86.5,80.0,30.11,East,91,2.0,5.0,81,0.00,,---,0.01,VWS V14.01,2013-08-20 19:06:00,
2013-08-20 15:11:00,86.1,79.6,30.10,East,93,2.0,5.0,81,0.00,,---,0.01,VWS V14.01,2013-08-20 19:11:00,
2013-08-20 15:16:00,85.8,79.7,30.10,East,90,2.0,5.0,82,0.00,,---,0.01,VWS V14.01,2013-08-20 19:16:00,
2013-08-20 15:21:00,85.3,79.2,30.10,East,84,1.0,5.0,82,0.00,,---,0.01,VWS V14.01,2013-08-20 19:21:00,
2013-08-20 15:26:00,85.0,79.3,30.10,East,92,0.0,5.0,83,0.00,,---,0.01,VWS V14.01,2013-08-20 19:26:00,
2013-08-20 15:30:00,84.8,79.1,30.09,East,92,0.0,5.0,83,0.00,,---,0.01,VWS V14.01,2013-08-20 19:30:00,
2013-08-20 15:31:00,84.8,79.1,30.09,East,92,1.0,2.0,83,0.00,,---,0.01,VWS V14.01,2013-08-20 19:31:00,
2013-08-20 15:36:00,84.6,79.2,30.09,East,92,1.0,2.0,84,0.00,,---,0.01,VWS V14.01,2013-08-20 19:36:00,
2013-08-20 15:41:00,84.3,78.9,30.09,East,92,0.0,2.0,84,0.00,,---,0.01,VWS V14.01,2013-08-20 19:41:00,
2013-08-20 15:46:00,84.1,78.8,30.09,East,92,0.0,2.0,84,0.00,,---,0.01,VWS V14.01,2013-08-20 19:46:00,
2013-08-20 15:51:00,83.9,78.9,30.09,East,92,0.0,3.0,85,0.00,,---,0.01,VWS V14.01,2013-08-20 19:51:00,
2013-08-20 15:56:00,83.8,78.8,30.08,East,92,1.0,3.0,85,0.00,,---,0.01,VWS V14.01,2013-08-20 19:56:00,
2013-08-20 16:00:00,83.6,78.6,30.08,East,93,2.0,3.0,85,0.00,,---,0.01,VWS V14.01,2013-08-20 20:00:00,
2013-08-20 16:01:00,83.5,78.5,30.08,East,93,0.0,2.0,85,0.00,,---,0.01,VWS V14.01,2013-08-20 20:01:00,
2013-08-20 16:06:00,83.4,78.4,30.09,East,95,0.0,2.0,85,0.00,,---,0.01,VWS V14.01,2013-08-20 20:06:00,
2013-08-20 16:10:00,83.4,78.8,30.08,East,96,1.0,2.0,86,0.00,,---,0.01,VWS V14.01,2013-08-20 20:10:00,
2013-08-20 16:15:00,83.3,78.7,30.09,East,92,0.0,3.0,86,0.00,,---,0.01,VWS V14.01,2013-08-20 20:15:00,
2013-08-20 16:20:00,83.1,78.5,30.08,East,90,1.0,3.0,86,0.00,,---,0.01,VWS V14.01,2013-08-20 20:20:00,
2013-08-20 16:25:00,83.0,78.4,30.08,East,94,0.0,4.0,86,0.00,,---,0.01,VWS V14.01,2013-08-20 20:25:00,
2013-08-20 16:30:00,82.9,78.3,30.08,East,94,0.0,0.0,86,0.00,,---,0.01,VWS V14.01,2013-08-20 20:30:00,
2013-08-20 16:35:00,82.9,78.3,30.08,East,94,0.0,2.0,86,0.00,,---,0.01,VWS V14.01,2013-08-20 20:35:00,
2013-08-20 16:40:00,82.8,78.2,30.08,East,94,0.0,2.0,86,0.00,,---,0.01,VWS V14.01,2013-08-20 20:40:00,
2013-08-20 16:45:00,82.7,78.1,30.08,East,94,0.0,3.0,86,0.00,,---,0.01,VWS V14.01,2013-08-20 20:45:00,
2013-08-20 16:50:00,82.7,78.1,30.08,East,94,0.0,3.0,86,0.00,,---,0.01,VWS V14.01,2013-08-20 20:50:00,
2013-08-20 16:55:00,82.8,78.2,30.09,East,94,0.0,3.0,86,0.00,,---,0.01,VWS V14.01,2013-08-20 20:55:00,
2013-08-20 17:00:00,82.7,78.1,30.09,East,94,0.0,0.0,86,0.00,,---,0.01,VWS V14.01,2013-08-20 21:00:00,
2013-08-20 17:05:00,82.8,78.2,30.08,East,94,3.0,3.0,86,0.00,,---,0.01,VWS V14.01,2013-08-20 21:05:00,
2013-08-20 17:10:00,82.8,78.2,30.08,East,94,0.0,3.0,86,0.00,,---,0.01,VWS V14.01,2013-08-20 21:10:00,
2013-08-20 17:15:00,82.8,78.2,30.09,East,94,0.0,3.0,86,0.00,,---,0.01,VWS V14.01,2013-08-20 21:15:00,
2013-08-20 17:20:00,82.9,77.9,30.08,East,94,0.0,3.0,85,0.00,,---,0.01,VWS V14.01,2013-08-20 21:20:00,
2013-08-20 17:25:00,82.9,77.9,30.09,East,94,1.0,3.0,85,0.00,,---,0.01,VWS V14.01,2013-08-20 21:25:00,
2013-08-20 17:30:00,83.0,78.4,30.08,East,94,0.0,0.0,86,0.00,,---,0.01,VWS V14.01,2013-08-20 21:30:00,
2013-08-20 17:35:00,83.1,78.5,30.08,East,96,1.0,3.0,86,0.00,,---,0.01,VWS V14.01,2013-08-20 21:35:00,
2013-08-20 17:40:00,83.1,78.5,30.08,East,97,0.0,3.0,86,0.00,,---,0.01,VWS V14.01,2013-08-20 21:40:00,
2013-08-20 17:45:00,83.2,78.6,30.08,East,97,0.0,3.0,86,0.00,,---,0.01,VWS V14.01,2013-08-20 21:45:00,
2013-08-20 17:50:00,83.2,78.2,30.08,ESE,112,1.0,4.0,85,0.00,,---,0.01,VWS V14.01,2013-08-20 21:50:00,
2013-08-20 17:55:00,83.1,78.1,30.08,ESE,112,0.0,4.0,85,0.00,,---,0.01,VWS V14.01,2013-08-20 21:55:00,
2013-08-20 18:00:00,83.0,78.4,30.08,ESE,112,0.0,0.0,86,0.00,,---,0.01,VWS V14.01,2013-08-20 22:00:00,
2013-08-20 18:05:00,82.9,78.3,30.09,ESE,112,0.0,0.0,86,0.00,,---,0.01,VWS V14.01,2013-08-20 22:05:00,
2013-08-20 18:10:00,82.8,78.2,30.09,ESE,112,0.0,0.0,86,0.00,,---,0.01,VWS V14.01,2013-08-20 22:10:00,
2013-08-20 18:15:00,82.8,78.2,30.09,ESE,112,0.0,1.0,86,0.00,,---,0.01,VWS V14.01,2013-08-20 22:15:00,
2013-08-20 18:20:00,82.7,78.1,30.09,ESE,112,0.0,1.0,86,0.00,,---,0.01,VWS V14.01,2013-08-20 22:20:00,
2013-08-20 18:25:00,82.7,78.4,30.10,ESE,112,0.0,1.0,87,0.00,,---,0.01,VWS V14.01,2013-08-20 22:25:00,
2013-08-20 18:30:00,82.7,78.4,30.10,ESE,112,0.0,0.0,87,0.00,,---,0.01,VWS V14.01,2013-08-20 22:30:00,
2013-08-20 18:35:00,82.6,78.3,30.09,ESE,112,0.0,0.0,87,0.00,,---,0.01,VWS V14.01,2013-08-20 22:35:00,
2013-08-20 18:40:00,82.5,78.2,30.10,ESE,112,0.0,0.0,87,0.00,,---,0.01,VWS V14.01,2013-08-20 22:40:00,
2013-08-20 18:45:00,82.5,78.2,30.10,ESE,112,0.0,0.0,87,0.00,,---,0.01,VWS V14.01,2013-08-20 22:45:00,
2013-08-20 18:50:00,82.4,78.1,30.10,ESE,112,0.0,0.0,87,0.00,,---,0.01,VWS V14.01,2013-08-20 22:50:00,
2013-08-20 18:55:00,82.3,78.4,30.10,ESE,112,0.0,0.0,88,0.00,,---,0.01,VWS V14.01,2013-08-20 22:55:00,
2013-08-20 19:00:00,82.3,78.4,30.10,ESE,112,0.0,0.0,88,0.00,,---,0.01,VWS V14.01,2013-08-20 23:00:00,
2013-08-20 19:05:00,82.2,78.3,30.10,ESE,112,0.0,0.0,88,0.00,,---,0.01,VWS V14.01,2013-08-20 23:05:00,
2013-08-20 19:10:00,82.1,75.3,30.10,South,188,0.0,0.0,80,0.00,,---,0.01,VWS V14.01,2013-08-20 23:10:00,
2013-08-20 19:15:00,82.1,75.3,30.10,SSE,167,0.0,0.0,80,0.00,,---,0.01,VWS V14.01,2013-08-20 23:15:00,
2013-08-20 19:20:00,82.2,75.0,30.10,South,172,0.0,0.0,79,0.00,,---,0.01,VWS V14.01,2013-08-20 23:20:00,
2013-08-20 19:25:00,82.2,75.0,30.11,SSE,163,0.0,0.0,79,0.00,,---,0.01,VWS V14.01,2013-08-20 23:25:00,
2013-08-20 19:30:00,82.2,75.0,30.11,South,172,0.0,0.0,79,0.00,,---,0.01,VWS V14.01,2013-08-20 23:30:00,
2013-08-20 19:35:00,82.3,75.1,30.10,South,169,0.0,0.0,79,0.00,,---,0.01,VWS V14.01,2013-08-20 23:35:00,
2013-08-20 19:40:00,82.2,75.0,30.10,South,171,0.0,0.0,79,0.00,,---,0.01,VWS V14.01,2013-08-20 23:40:00,
2013-08-20 19:45:00,82.1,74.9,30.10,South,172,0.0,0.0,79,0.00,,---,0.01,VWS V14.01,2013-08-20 23:45:00,
2013-08-20 19:50:00,82.0,74.8,30.10,South,186,0.0,0.0,79,0.00,,---,0.01,VWS V14.01,2013-08-20 23:50:00,
2013-08-20 19:55:00,82.1,75.3,30.10,South,186,0.0,0.0,80,0.00,,---,0.01,VWS V14.01,2013-08-20 23:55:00,
2013-08-20 20:00:00,82.0,75.2,30.10,South,186,0.0,0.0,80,0.00,,---,0.01,VWS V14.01,2013-08-21 00:00:00,
2013-08-20 20:05:00,82.0,75.2,30.10,South,186,0.0,0.0,80,0.00,,---,0.01,VWS V14.01,2013-08-21 00:05:00,
2013-08-20 20:10:00,81.9,75.1,30.10,South,186,0.0,0.0,80,0.00,,---,0.01,VWS V14.01,2013-08-21 00:10:00,
2013-08-20 20:15:00,81.9,75.1,30.10,South,186,0.0,0.0,80,0.00,,---,0.01,VWS V14.01,2013-08-21 00:15:00,
2013-08-20 20:20:00,81.8,75.0,30.10,South,186,0.0,0.0,80,0.00,,---,0.01,VWS V14.01,2013-08-21 00:20:00,
2013-08-20 20:25:00,81.8,75.0,30.10,South,186,0.0,0.0,80,0.00,,---,0.01,VWS V14.01,2013-08-21 00:25:00,
2013-08-20 20:30:00,81.8,75.4,30.10,South,186,0.0,0.0,81,0.00,,---,0.01,VWS V14.01,2013-08-21 00:30:00,
2013-08-20 20:35:00,81.8,75.4,30.10,South,186,0.0,0.0,81,0.00,,---,0.01,VWS V14.01,2013-08-21 00:35:00,
2013-08-20 20:40:00,81.8,75.4,30.10,South,186,0.0,0.0,81,0.00,,---,0.01,VWS V14.01,2013-08-21 00:40:00,
2013-08-20 20:45:00,81.7,75.3,30.10,South,186,0.0,0.0,81,0.00,,---,0.01,VWS V14.01,2013-08-21 00:45:00,
2013-08-20 20:50:00,81.6,74.8,30.11,South,186,0.0,0.0,80,0.00,,---,0.01,VWS V14.01,2013-08-21 00:50:00,
2013-08-20 20:55:00,81.6,75.2,30.11,South,186,0.0,0.0,81,0.00,,---,0.01,VWS V14.01,2013-08-21 00:55:00,
2013-08-20 21:00:00,81.8,75.4,30.10,South,186,0.0,0.0,81,0.00,,---,0.01,VWS V14.01,2013-08-21 01:00:00,
2013-08-20 21:05:00,81.6,75.2,30.11,South,186,0.0,0.0,81,0.00,,---,0.01,VWS V14.01,2013-08-21 01:05:00,
2013-08-20 21:10:00,81.6,74.8,30.10,South,186,0.0,0.0,80,0.00,,---,0.01,VWS V14.01,2013-08-21 01:10:00,
2013-08-20 21:15:00,81.6,74.8,30.11,South,186,0.0,0.0,80,0.00,,---,0.01,VWS V14.01,2013-08-21 01:15:00,
2013-08-20 21:19:00,81.6,74.8,30.11,South,186,0.0,0.0,80,0.00,,---,0.01,VWS V14.01,2013-08-21 01:19:00,
2013-08-20 21:24:00,81.6,74.8,30.11,South,186,0.0,0.0,80,0.00,,---,0.01,VWS V14.01,2013-08-21 01:24:00,
2013-08-20 21:29:00,81.6,74.8,30.11,South,186,0.0,0.0,80,0.00,,---,0.01,VWS V14.01,2013-08-21 01:29:00,
2013-08-20 21:30:00,81.7,74.9,30.11,South,186,0.0,0.0,80,0.00,,---,0.01,VWS V14.01,2013-08-21 01:30:00,
2013-08-20 21:34:00,81.7,74.9,30.11,South,186,0.0,0.0,80,0.00,,---,0.01,VWS V14.01,2013-08-21 01:34:00,
2013-08-20 21:39:00,81.6,74.8,30.11,South,186,0.0,0.0,80,0.00,,---,0.01,VWS V14.01,2013-08-21 01:39:00,
2013-08-20 21:44:00,81.6,74.8,30.11,South,186,0.0,0.0,80,0.00,,---,0.01,VWS V14.01,2013-08-21 01:44:00,
2013-08-20 21:49:00,81.6,74.8,30.12,South,186,0.0,0.0,80,0.00,,---,0.01,VWS V14.01,2013-08-21 01:49:00,
2013-08-20 21:54:00,81.6,74.8,30.12,South,186,0.0,0.0,80,0.00,,---,0.01,VWS V14.01,2013-08-21 01:54:00,
2013-08-20 21:59:00,81.6,74.8,30.12,South,186,0.0,0.0,80,0.00,,---,0.01,VWS V14.01,2013-08-21 01:59:00,
2013-08-20 22:00:00,81.6,74.8,30.12,South,186,0.0,0.0,80,0.00,,---,0.01,VWS V14.01,2013-08-21 02:00:00,
2013-08-20 22:04:00,81.6,74.8,30.12,South,186,0.0,0.0,80,0.00,,---,0.01,VWS V14.01,2013-08-21 02:04:00,
2013-08-20 22:09:00,81.4,74.6,30.12,South,186,0.0,0.0,80,0.00,,---,0.01,VWS V14.01,2013-08-21 02:09:00,
2013-08-20 22:14:00,81.3,74.9,30.12,SSW,200,0.0,0.0,81,0.00,,---,0.01,VWS V14.01,2013-08-21 02:14:00,
2013-08-20 22:19:00,81.1,74.7,30.12,SSW,200,0.0,0.0,81,0.00,,---,0.01,VWS V14.01,2013-08-21 02:19:00,
2013-08-20 22:24:00,80.9,74.5,30.12,SSW,200,0.0,0.0,81,0.00,,---,0.01,VWS V14.01,2013-08-21 02:24:00,
2013-08-20 22:29:00,80.5,74.1,30.12,SSW,200,0.0,0.0,81,0.00,,---,0.01,VWS V14.01,2013-08-21 02:29:00,
2013-08-20 22:30:00,80.5,74.1,30.12,SSW,200,0.0,0.0,81,0.00,,---,0.01,VWS V14.01,2013-08-21 02:30:00,
2013-08-20 22:34:00,80.0,74.0,30.12,SSW,200,0.0,0.0,82,0.00,,---,0.01,VWS V14.01,2013-08-21 02:34:00,
2013-08-20 22:39:00,79.6,73.6,30.12,SSW,200,0.0,0.0,82,0.00,,---,0.01,VWS V14.01,2013-08-21 02:39:00,
2013-08-20 22:44:00,79.3,73.7,30.12,SSW,200,0.0,0.0,83,0.00,,---,0.01,VWS V14.01,2013-08-21 02:44:00,
2013-08-20 22:49:00,79.1,73.5,30.13,SSW,200,0.0,0.0,83,0.00,,---,0.01,VWS V14.01,2013-08-21 02:49:00,
2013-08-20 22:54:00,78.8,73.2,30.13,SSW,200,0.0,0.0,83,0.00,,---,0.01,VWS V14.01,2013-08-21 02:54:00,
2013-08-20 22:59:00,78.7,73.5,30.13,SSW,200,0.0,0.0,84,0.00,,---,0.01,VWS V14.01,2013-08-21 02:59:00,
2013-08-20 23:00:00,78.6,73.4,30.13,SSW,200,0.0,0.0,84,0.00,,---,0.01,VWS V14.01,2013-08-21 03:00:00,
2013-08-20 23:04:00,78.5,73.3,30.13,SSW,200,0.0,0.0,84,0.00,,---,0.01,VWS V14.01,2013-08-21 03:04:00,
2013-08-20 23:09:00,78.3,73.4,30.14,SSW,200,0.0,0.0,85,0.00,,---,0.01,VWS V14.01,2013-08-21 03:09:00,
2013-08-20 23:14:00,78.1,73.2,30.13,SSW,200,0.0,0.0,85,0.00,,---,0.01,VWS V14.01,2013-08-21 03:14:00,
2013-08-20 23:19:00,78.0,73.1,30.14,SSW,201,0.0,0.0,85,0.00,,---,0.01,VWS V14.01,2013-08-21 03:19:00,
2013-08-20 23:24:00,77.8,72.9,30.14,SSW,201,0.0,0.0,85,0.00,,---,0.01,VWS V14.01,2013-08-21 03:24:00,
2013-08-20 23:29:00,77.7,73.2,30.14,SSW,201,0.0,0.0,86,0.00,,---,0.01,VWS V14.01,2013-08-21 03:29:00,
2013-08-20 23:30:00,77.7,73.2,30.14,SSW,201,0.0,0.0,86,0.00,,---,0.01,VWS V14.01,2013-08-21 03:30:00,
2013-08-20 23:34:00,77.6,73.1,30.14,SSW,202,0.0,0.0,86,0.00,,---,0.01,VWS V14.01,2013-08-21 03:34:00,
2013-08-20 23:39:00,77.5,73.0,30.14,SW,227,0.0,0.0,86,0.00,,---,0.01,VWS V14.01,2013-08-21 03:39:00,
2013-08-20 23:44:00,77.5,73.0,30.14,SW,228,0.0,0.0,86,0.00,,---,0.01,VWS V14.01,2013-08-21 03:44:00,
2013-08-20 23:49:00,77.4,72.9,30.15,SW,229,0.0,0.0,86,0.00,,---,0.01,VWS V14.01,2013-08-21 03:49:00,
2013-08-20 23:54:00,77.3,72.8,30.14,SW,229,0.0,0.0,86,0.00,,---,0.01,VWS V14.01,2013-08-21 03:54:00,
2013-08-20 23:59:00,77.2,72.7,30.14,SW,230,0.0,0.0,86,0.00,,---,0.01,VWS V14.01,2013-08-21 03:59:00,